Time;durP1;ratioP1;P1;durP2;ratioP2;P2;SDS_P1;SDS_P2;PMS_P1;PMS_P2;Temp;Humidity;BMP_temperature;BMP_pressure;BME280_temperature;BME280_humidity;BME280_pressure;Samples;Min_cycle;Max_cycle;Signal;HPM_P1;HPM_P2
2023/05/13 00:00:03;;;;;;;20.52;14.75;;;;;;;;;;5007102;28;20048;-68
2023/05/13 00:02:28;;;;;;;20.13;15.57;;;;;;;;;;5007865;28;20082;-68
2023/05/13 00:04:54;;;;;;;19.65;14.15;;;;;;;;;;5021137;28;20128;-68
2023/05/13 00:07:19;;;;;;;17.83;14.48;;;;;;;;;;5035846;28;20049;-70
2023/05/13 00:09:44;;;;;;;18.75;14.73;;;;;;;;;;5037025;28;20048;-70
2023/05/13 00:12:10;;;;;;;22.02;14.68;;;;;;;;;;5035509;28;20033;-69
2023/05/13 00:14:35;;;;;;;19.70;14.75;;;;;;;;;;5004922;28;20041;-69
2023/05/13 00:17:03;;;;;;;19.25;13.75;;;;;;;;;;5013494;28;20042;-69
2023/05/13 00:19:29;;;;;;;18.60;14.63;;;;;;;;;;5008195;28;20037;-68
2023/05/13 00:21:54;;;;;;;18.70;13.75;;;;;;;;;;5028927;28;20042;-68
2023/05/13 00:24:19;;;;;;;15.50;13.20;;;;;;;;;;5035627;28;20049;-69
2023/05/13 00:26:45;;;;;;;19.70;13.30;;;;;;;;;;5003599;28;20728;-68
2023/05/13 00:29:10;;;;;;;17.55;12.95;;;;;;;;;;4980157;28;20049;-68
2023/05/13 00:31:37;;;;;;;16.60;13.02;;;;;;;;;;4990131;28;20123;-68
2023/05/13 00:34:03;;;;;;;16.95;13.30;;;;;;;;;;4999612;28;20582;-68
2023/05/13 00:36:28;;;;;;;18.85;14.05;;;;;;;;;;4996713;28;20060;-68
2023/05/13 00:38:54;;;;;;;22.90;14.13;;;;;;;;;;4992151;28;20496;-68
2023/05/13 00:41:21;;;;;;;17.90;13.52;;;;;;;;;;5011446;28;20043;-67
2023/05/13 00:43:50;;;;;;;15.07;13.45;;;;;;;;;;5010844;28;20036;-68
2023/05/13 00:46:15;;;;;;;22.17;13.43;;;;;;;;;;5011820;28;20117;-67
2023/05/13 00:48:43;;;;;;;18.00;13.68;;;;;;;;;;5016192;28;20049;-68
2023/05/13 00:51:10;;;;;;;21.48;13.05;;;;;;;;;;5008917;28;20164;-67
2023/05/13 00:53:36;;;;;;;23.38;14.40;;;;;;;;;;5041918;28;20041;-67
2023/05/13 00:56:03;;;;;;;16.70;13.55;;;;;;;;;;5022335;28;20037;-69
2023/05/13 00:58:29;;;;;;;18.33;13.35;;;;;;;;;;4991134;28;20042;-68
2023/05/13 01:00:55;;;;;;;16.45;13.20;;;;;;;;;;4990992;28;20037;-67
2023/05/13 01:03:28;;;;;;;20.95;14.10;;;;;;;;;;4990547;28;20038;-67
2023/05/13 01:06:10;;;;;;;19.27;14.02;;;;;;;;;;5019644;28;20041;-67
2023/05/13 01:08:53;;;;;;;17.05;13.63;;;;;;;;;;4991569;28;20576;-67
2023/05/13 01:11:21;;;;;;;21.33;15.38;;;;;;;;;;4989938;28;20034;-67
2023/05/13 01:13:56;;;;;;;19.48;14.75;;;;;;;;;;4996412;28;20034;-67
2023/05/13 01:16:27;;;;;;;19.75;15.73;;;;;;;;;;4988885;28;20038;-67
2023/05/13 01:18:58;;;;;;;21.47;15.70;;;;;;;;;;4987666;28;20041;-67
2023/05/13 01:21:27;;;;;;;21.85;15.05;;;;;;;;;;4990471;28;20026;-67
2023/05/13 01:23:58;;;;;;;19.47;15.00;;;;;;;;;;4990361;28;20053;-67
2023/05/13 01:26:25;;;;;;;18.98;15.20;;;;;;;;;;4991032;28;20118;-67
2023/05/13 01:28:50;;;;;;;18.25;14.60;;;;;;;;;;4990307;28;20046;-67
2023/05/13 01:31:21;;;;;;;23.48;15.18;;;;;;;;;;4989237;28;20747;-67
2023/05/13 01:33:50;;;;;;;21.38;15.68;;;;;;;;;;4989753;28;20038;-68
2023/05/13 01:36:18;;;;;;;20.77;15.18;;;;;;;;;;4991426;28;20053;-68
2023/05/13 01:38:43;;;;;;;19.35;14.27;;;;;;;;;;4983945;28;20092;-68
2023/05/13 01:41:09;;;;;;;25.00;15.20;;;;;;;;;;4988745;28;20034;-69
2023/05/13 01:43:34;;;;;;;25.20;16.95;;;;;;;;;;4992771;28;20081;-67
2023/05/13 01:46:00;;;;;;;23.25;15.73;;;;;;;;;;4989865;28;20034;-66
2023/05/13 01:48:25;;;;;;;21.10;16.23;;;;;;;;;;4981357;28;20049;-67
2023/05/13 01:50:53;;;;;;;22.60;16.20;;;;;;;;;;4991794;28;20041;-67
2023/05/13 01:53:19;;;;;;;22.85;17.50;;;;;;;;;;4989773;28;20653;-68
2023/05/13 01:55:44;;;;;;;26.58;16.95;;;;;;;;;;4990571;28;20087;-68
2023/05/13 01:58:09;;;;;;;26.27;18.92;;;;;;;;;;4990061;28;20042;-68
2023/05/13 02:00:35;;;;;;;24.17;17.88;;;;;;;;;;5017949;28;20041;-67
2023/05/13 02:03:02;;;;;;;35.95;19.05;;;;;;;;;;4991677;28;20041;-68
2023/05/13 02:05:30;;;;;;;29.40;19.55;;;;;;;;;;5003624;28;20128;-68
2023/05/13 02:07:55;;;;;;;37.08;20.35;;;;;;;;;;5010291;28;20816;-68
2023/05/13 02:10:20;;;;;;;35.25;21.55;;;;;;;;;;4995866;28;20033;-68
2023/05/13 02:12:46;;;;;;;39.10;21.77;;;;;;;;;;5013495;28;20132;-68
2023/05/13 02:15:12;;;;;;;38.55;22.90;;;;;;;;;;5009756;28;20060;-69
2023/05/13 02:17:41;;;;;;;37.28;23.23;;;;;;;;;;5007692;28;20048;-68
2023/05/13 02:20:07;;;;;;;36.83;24.17;;;;;;;;;;5008466;28;20037;-68
2023/05/13 02:22:32;;;;;;;38.45;23.77;;;;;;;;;;5008324;28;20053;-68
2023/05/13 02:24:57;;;;;;;39.40;23.90;;;;;;;;;;5015514;28;20498;-69
2023/05/13 02:27:23;;;;;;;40.38;25.75;;;;;;;;;;5007990;28;20225;-67
2023/05/13 02:29:48;;;;;;;42.35;27.52;;;;;;;;;;5024450;28;20463;-68
2023/05/13 02:32:13;;;;;;;55.30;29.90;;;;;;;;;;5038604;28;20509;-68
2023/05/13 02:34:38;;;;;;;60.85;30.80;;;;;;;;;;5011362;28;20033;-68
2023/05/13 02:37:04;;;;;;;62.53;31.20;;;;;;;;;;5007079;28;20037;-68
2023/05/13 02:39:29;;;;;;;59.80;32.20;;;;;;;;;;5009036;28;20037;-68
2023/05/13 02:41:55;;;;;;;56.58;32.95;;;;;;;;;;5007413;28;20045;-68
2023/05/13 02:44:20;;;;;;;60.53;32.83;;;;;;;;;;5008764;28;20057;-69
2023/05/13 02:46:45;;;;;;;86.45;36.97;;;;;;;;;;5006835;28;20064;-67
2023/05/13 02:49:11;;;;;;;60.45;36.15;;;;;;;;;;5039901;28;20034;-69
2023/05/13 02:51:36;;;;;;;71.28;38.88;;;;;;;;;;5008893;28;20160;-68
2023/05/13 02:54:01;;;;;;;69.63;39.47;;;;;;;;;;5007596;28;20107;-68
2023/05/13 02:56:27;;;;;;;81.68;40.42;;;;;;;;;;5008037;28;20049;-67
2023/05/13 02:58:52;;;;;;;68.45;39.08;;;;;;;;;;5017677;28;20261;-68
2023/05/13 03:01:17;;;;;;;69.10;38.53;;;;;;;;;;5009348;28;20037;-68
2023/05/13 03:03:43;;;;;;;67.93;38.83;;;;;;;;;;5005615;28;20034;-68
2023/05/13 03:06:08;;;;;;;68.47;39.22;;;;;;;;;;5040265;28;20047;-68
2023/05/13 03:08:33;;;;;;;66.95;38.22;;;;;;;;;;5006844;28;20084;-68
2023/05/13 03:11:00;;;;;;;70.00;37.45;;;;;;;;;;5008146;28;20069;-69
2023/05/13 03:13:25;;;;;;;66.28;37.97;;;;;;;;;;5028235;28;20107;-68
2023/05/13 03:15:50;;;;;;;70.05;38.03;;;;;;;;;;5037568;28;20629;-68
2023/05/13 03:18:15;;;;;;;65.18;36.85;;;;;;;;;;5008424;28;20044;-68
2023/05/13 03:20:41;;;;;;;55.92;37.20;;;;;;;;;;5023543;28;20037;-68
2023/05/13 03:23:06;;;;;;;53.80;37.05;;;;;;;;;;5039088;28;20170;-68
2023/05/13 03:25:31;;;;;;;52.55;35.25;;;;;;;;;;5007310;28;20152;-68
2023/05/13 03:27:59;;;;;;;57.95;36.55;;;;;;;;;;5010125;28;20854;-67
2023/05/13 03:30:24;;;;;;;52.28;37.40;;;;;;;;;;5040167;28;20033;-68
2023/05/13 03:32:49;;;;;;;52.03;36.00;;;;;;;;;;5007987;28;20441;-68
2023/05/13 03:35:15;;;;;;;53.80;34.17;;;;;;;;;;5005583;28;20083;-67
2023/05/13 03:37:40;;;;;;;50.53;34.78;;;;;;;;;;5013887;28;20044;-68
2023/05/13 03:40:06;;;;;;;50.75;35.90;;;;;;;;;;5040464;28;20554;-67
2023/05/13 03:42:31;;;;;;;51.08;34.97;;;;;;;;;;5010081;28;20059;-67
2023/05/13 03:44:56;;;;;;;55.22;34.38;;;;;;;;;;5004904;28;20045;-67
2023/05/13 03:47:22;;;;;;;53.45;35.45;;;;;;;;;;5006034;28;20053;-67
2023/05/13 03:49:47;;;;;;;56.28;35.45;;;;;;;;;;5008839;28;20037;-68
2023/05/13 03:52:13;;;;;;;50.88;35.55;;;;;;;;;;5014352;28;20151;-68
2023/05/13 03:54:38;;;;;;;52.95;35.67;;;;;;;;;;5005071;28;20095;-68
2023/05/13 03:57:03;;;;;;;48.22;35.92;;;;;;;;;;5007195;28;20043;-67
2023/05/13 03:59:29;;;;;;;55.95;35.00;;;;;;;;;;5006818;28;20060;-68
2023/05/13 04:01:54;;;;;;;51.35;36.50;;;;;;;;;;5006787;28;20033;-68
2023/05/13 04:04:19;;;;;;;47.03;34.58;;;;;;;;;;5006538;28;20061;-68
2023/05/13 04:06:45;;;;;;;58.47;36.92;;;;;;;;;;5008102;28;20147;-68
2023/05/13 04:09:10;;;;;;;55.85;36.53;;;;;;;;;;5017204;28;20032;-67
2023/05/13 04:11:35;;;;;;;56.50;36.20;;;;;;;;;;5042487;28;20625;-68
2023/05/13 04:14:00;;;;;;;55.65;36.78;;;;;;;;;;4999289;28;20087;-67
2023/05/13 04:16:26;;;;;;;51.65;35.95;;;;;;;;;;5009756;28;20556;-67
2023/05/13 04:18:57;;;;;;;48.38;35.60;;;;;;;;;;5010633;28;20133;-67
2023/05/13 04:21:23;;;;;;;55.92;37.13;;;;;;;;;;5010023;28;20142;-67
2023/05/13 04:23:48;;;;;;;53.72;36.42;;;;;;;;;;5044137;28;20071;-67
2023/05/13 04:26:13;;;;;;;55.83;36.80;;;;;;;;;;5010339;28;20038;-67
2023/05/13 04:28:38;;;;;;;54.30;37.15;;;;;;;;;;5008697;28;20650;-69
2023/05/13 04:31:04;;;;;;;56.35;36.22;;;;;;;;;;5012609;28;20037;-69
2023/05/13 04:33:29;;;;;;;61.75;37.85;;;;;;;;;;5012067;28;20490;-68
2023/05/13 04:35:54;;;;;;;56.22;36.40;;;;;;;;;;5012448;28;20053;-68
2023/05/13 04:38:20;;;;;;;50.83;36.75;;;;;;;;;;5040086;28;20046;-68
2023/05/13 04:40:46;;;;;;;55.67;37.40;;;;;;;;;;5014913;28;20128;-68
2023/05/13 04:43:14;;;;;;;49.53;35.55;;;;;;;;;;5017528;28;20056;-67
2023/05/13 04:45:42;;;;;;;55.15;38.05;;;;;;;;;;5010228;28;20130;-68
2023/05/13 04:48:10;;;;;;;61.20;37.85;;;;;;;;;;5007781;28;20057;-68
2023/05/13 04:50:35;;;;;;;51.28;36.00;;;;;;;;;;5009327;28;20167;-69
2023/05/13 04:53:02;;;;;;;51.78;36.35;;;;;;;;;;5010141;28;20525;-69
2023/05/13 04:55:28;;;;;;;50.50;35.95;;;;;;;;;;5011636;28;20033;-69
2023/05/13 04:57:53;;;;;;;52.55;37.20;;;;;;;;;;5013407;28;22676;-68
2023/05/13 05:00:20;;;;;;;49.95;36.55;;;;;;;;;;5009029;28;20069;-67
2023/05/13 05:02:46;;;;;;;51.70;35.45;;;;;;;;;;5010686;28;20045;-68
2023/05/13 05:05:13;;;;;;;54.17;38.33;;;;;;;;;;5009864;28;20544;-69
2023/05/13 05:07:39;;;;;;;54.10;35.75;;;;;;;;;;5008109;28;20646;-68
2023/05/13 05:10:05;;;;;;;53.45;36.30;;;;;;;;;;5041744;28;20119;-68
2023/05/13 05:12:31;;;;;;;57.35;37.97;;;;;;;;;;5009892;28;20625;-69
2023/05/13 05:14:56;;;;;;;59.92;37.45;;;;;;;;;;5011189;28;20041;-69
2023/05/13 05:17:21;;;;;;;50.85;36.55;;;;;;;;;;5028862;28;20041;-70
2023/05/13 05:19:46;;;;;;;54.28;34.97;;;;;;;;;;5014410;28;20046;-71
2023/05/13 05:22:12;;;;;;;49.92;34.72;;;;;;;;;;5042497;28;20045;-71
2023/05/13 05:24:37;;;;;;;45.38;33.80;;;;;;;;;;5008659;28;20748;-73
2023/05/13 05:27:02;;;;;;;50.38;32.03;;;;;;;;;;5011462;28;20073;-69
2023/05/13 05:29:28;;;;;;;50.70;33.15;;;;;;;;;;5015395;28;20041;-71
2023/05/13 05:31:53;;;;;;;48.85;31.58;;;;;;;;;;5009813;28;20060;-72
2023/05/13 05:34:18;;;;;;;45.90;31.00;;;;;;;;;;5009848;28;20046;-71
2023/05/13 05:36:44;;;;;;;39.45;28.27;;;;;;;;;;5007065;28;20899;-71
2023/05/13 05:39:09;;;;;;;44.72;27.83;;;;;;;;;;5008106;28;20036;-70
2023/05/13 05:41:37;;;;;;;34.05;25.65;;;;;;;;;;5041554;28;20123;-70
2023/05/13 05:44:05;;;;;;;36.78;25.55;;;;;;;;;;5009503;28;20029;-72
2023/05/13 05:46:30;;;;;;;35.88;24.42;;;;;;;;;;5006401;28;20544;-72
2023/05/13 05:48:58;;;;;;;31.40;23.45;;;;;;;;;;5009372;28;20071;-72
2023/05/13 05:51:23;;;;;;;30.42;22.45;;;;;;;;;;5040237;28;20781;-72
2023/05/13 05:53:48;;;;;;;28.65;21.17;;;;;;;;;;5040243;28;20037;-71
2023/05/13 05:56:16;;;;;;;28.08;20.98;;;;;;;;;;5009486;28;20033;-72
2023/05/13 05:58:42;;;;;;;33.22;21.05;;;;;;;;;;5039416;28;20268;-70
2023/05/13 06:01:07;;;;;;;31.48;20.10;;;;;;;;;;5009886;28;20033;-73
2023/05/13 06:03:32;;;;;;;29.02;18.98;;;;;;;;;;5040090;28;20069;-70
2023/05/13 06:05:58;;;;;;;28.08;18.90;;;;;;;;;;5024424;28;20037;-70
2023/05/13 06:08:28;;;;;;;26.95;17.38;;;;;;;;;;5003358;28;20186;-70
2023/05/13 06:10:56;;;;;;;26.92;16.88;;;;;;;;;;5008366;28;20034;-70
2023/05/13 06:13:21;;;;;;;24.75;16.30;;;;;;;;;;5006100;28;20095;-72
2023/05/13 06:15:47;;;;;;;23.23;15.50;;;;;;;;;;5005884;28;20124;-72
2023/05/13 06:18:13;;;;;;;23.35;14.40;;;;;;;;;;5008857;28;21258;-71
2023/05/13 06:20:38;;;;;;;24.10;13.98;;;;;;;;;;5004918;28;20095;-71
2023/05/13 06:23:04;;;;;;;21.98;13.20;;;;;;;;;;5007035;28;20057;-71
2023/05/13 06:25:29;;;;;;;16.55;11.98;;;;;;;;;;5008180;28;20506;-71
2023/05/13 06:27:55;;;;;;;15.80;11.80;;;;;;;;;;5007774;28;20045;-69
2023/05/13 06:30:22;;;;;;;19.70;10.82;;;;;;;;;;5007321;28;20046;-71
2023/05/13 06:32:47;;;;;;;17.65;10.88;;;;;;;;;;5009307;28;20037;-70
2023/05/13 06:35:12;;;;;;;16.80;10.13;;;;;;;;;;5009903;28;20092;-72
2023/05/13 06:37:37;;;;;;;17.73;10.07;;;;;;;;;;5007430;28;20046;-73
2023/05/13 06:40:03;;;;;;;14.20;9.93;;;;;;;;;;5009465;28;20034;-70
2023/05/13 06:42:28;;;;;;;15.48;8.98;;;;;;;;;;5008441;28;20041;-71
2023/05/13 06:44:53;;;;;;;16.33;9.27;;;;;;;;;;5005972;28;20042;-70
2023/05/13 06:47:19;;;;;;;15.07;8.45;;;;;;;;;;5010350;28;20664;-72
2023/05/13 06:49:44;;;;;;;20.23;8.50;;;;;;;;;;5003941;28;20167;-69
2023/05/13 06:52:09;;;;;;;15.30;8.50;;;;;;;;;;5002293;28;20487;-68
2023/05/13 06:54:35;;;;;;;15.38;7.82;;;;;;;;;;5004760;28;20099;-66
2023/05/13 06:57:00;;;;;;;12.43;8.43;;;;;;;;;;5004193;28;20033;-65
2023/05/13 06:59:29;;;;;;;11.00;8.20;;;;;;;;;;5002450;28;20099;-66
2023/05/13 07:01:54;;;;;;;12.65;7.47;;;;;;;;;;5033189;28;20064;-66
2023/05/13 07:04:19;;;;;;;10.55;6.35;;;;;;;;;;5004706;28;20031;-66
2023/05/13 07:06:45;;;;;;;14.07;7.10;;;;;;;;;;5003351;28;20025;-67
2023/05/13 07:09:10;;;;;;;15.20;6.88;;;;;;;;;;5004280;28;20704;-66
2023/05/13 07:11:35;;;;;;;8.85;6.65;;;;;;;;;;5010755;28;20227;-67
2023/05/13 07:14:01;;;;;;;9.68;5.95;;;;;;;;;;5005063;28;20235;-66
2023/05/13 07:16:26;;;;;;;11.55;6.57;;;;;;;;;;5004610;28;20173;-66
2023/05/13 07:18:53;;;;;;;14.35;6.10;;;;;;;;;;5005731;28;20506;-65
2023/05/13 07:21:18;;;;;;;11.45;5.68;;;;;;;;;;5002271;28;20038;-65
2023/05/13 07:23:43;;;;;;;10.48;5.72;;;;;;;;;;5037969;28;20061;-66
2023/05/13 07:26:09;;;;;;;11.95;5.55;;;;;;;;;;5003736;28;20038;-66
2023/05/13 07:28:34;;;;;;;7.70;5.00;;;;;;;;;;5037573;28;20861;-66
2023/05/13 07:31:00;;;;;;;10.85;5.65;;;;;;;;;;5003301;28;20037;-66
2023/05/13 07:33:25;;;;;;;11.38;5.40;;;;;;;;;;5008293;28;20038;-66
2023/05/13 07:35:50;;;;;;;8.27;5.25;;;;;;;;;;5003064;28;20623;-66
2023/05/13 07:38:16;;;;;;;8.55;4.80;;;;;;;;;;5006037;28;20044;-67
2023/05/13 07:40:41;;;;;;;10.25;4.90;;;;;;;;;;5006036;28;20501;-66
2023/05/13 07:43:09;;;;;;;14.05;5.50;;;;;;;;;;5007130;28;20033;-66
2023/05/13 07:45:38;;;;;;;8.90;4.55;;;;;;;;;;5008206;28;22620;-68
2023/05/13 07:48:04;;;;;;;9.20;5.18;;;;;;;;;;5001693;28;20064;-66
2023/05/13 07:50:32;;;;;;;11.27;5.20;;;;;;;;;;5005969;28;20040;-65
2023/05/13 07:52:59;;;;;;;9.98;4.78;;;;;;;;;;5004156;28;20045;-65
2023/05/13 07:55:25;;;;;;;9.35;4.70;;;;;;;;;;5023997;28;20513;-67
2023/05/13 07:57:50;;;;;;;9.48;4.65;;;;;;;;;;5003788;28;20034;-66
2023/05/13 08:00:15;;;;;;;8.10;4.55;;;;;;;;;;5036314;28;20037;-66
2023/05/13 08:02:43;;;;;;;7.95;4.63;;;;;;;;;;5004642;28;20065;-66
2023/05/13 08:05:09;;;;;;;10.73;4.50;;;;;;;;;;5004485;28;20052;-65
2023/05/13 08:07:34;;;;;;;11.82;5.22;;;;;;;;;;5013956;28;20049;-65
2023/05/13 08:10:00;;;;;;;9.07;4.43;;;;;;;;;;5038101;28;20061;-65
2023/05/13 08:12:25;;;;;;;16.67;5.97;;;;;;;;;;5004823;28;20043;-66
2023/05/13 08:14:50;;;;;;;11.85;5.07;;;;;;;;;;5004568;28;20107;-65
2023/05/13 08:17:18;;;;;;;8.90;4.43;;;;;;;;;;5006569;28;20135;-64
2023/05/13 08:19:44;;;;;;;10.20;5.00;;;;;;;;;;5041067;28;20041;-64
2023/05/13 08:22:14;;;;;;;14.23;6.60;;;;;;;;;;5009849;28;20045;-65
2023/05/13 08:24:39;;;;;;;18.52;6.38;;;;;;;;;;5005839;28;20064;-65
2023/05/13 08:27:05;;;;;;;20.40;6.78;;;;;;;;;;5004206;28;20663;-66
2023/05/13 08:29:30;;;;;;;18.58;7.53;;;;;;;;;;5040752;28;20033;-67
2023/05/13 08:31:55;;;;;;;21.88;6.97;;;;;;;;;;5005646;28;20030;-67
2023/05/13 08:34:21;;;;;;;18.65;6.47;;;;;;;;;;5009441;28;20037;-67
2023/05/13 08:36:46;;;;;;;17.17;6.13;;;;;;;;;;5019368;28;22347;-66
2023/05/13 08:39:12;;;;;;;21.67;6.72;;;;;;;;;;5015854;28;20370;-65
2023/05/13 08:41:37;;;;;;;22.58;7.13;;;;;;;;;;5028144;28;20045;-65
2023/05/13 08:44:03;;;;;;;22.55;7.72;;;;;;;;;;5036080;28;20513;-66
2023/05/13 08:46:31;;;;;;;22.27;6.57;;;;;;;;;;5005769;28;20049;-66
2023/05/13 08:48:56;;;;;;;17.52;6.35;;;;;;;;;;5006233;28;20050;-66
2023/05/13 08:51:22;;;;;;;24.88;7.03;;;;;;;;;;5005710;28;20033;-66
2023/05/13 08:53:48;;;;;;;24.45;7.13;;;;;;;;;;5008670;28;20044;-65
2023/05/13 08:56:16;;;;;;;20.17;6.82;;;;;;;;;;5010480;28;20037;-65
2023/05/13 08:58:41;;;;;;;25.83;7.28;;;;;;;;;;5010666;28;20454;-67
2023/05/13 09:01:06;;;;;;;23.35;6.95;;;;;;;;;;5042112;28;20071;-69
2023/05/13 09:03:35;;;;;;;24.98;7.55;;;;;;;;;;5011984;28;20029;-67
2023/05/13 09:06:00;;;;;;;25.35;8.00;;;;;;;;;;5019163;28;20029;-66
2023/05/13 09:08:25;;;;;;;22.30;6.60;;;;;;;;;;5045957;28;20049;-67
2023/05/13 09:10:51;;;;;;;21.05;7.22;;;;;;;;;;5013233;28;20090;-66
2023/05/13 09:13:17;;;;;;;21.90;7.72;;;;;;;;;;5011077;28;20091;-67
2023/05/13 09:15:43;;;;;;;27.85;7.95;;;;;;;;;;5011415;28;20037;-66
2023/05/13 09:18:08;;;;;;;26.85;8.38;;;;;;;;;;5010888;28;20041;-68
2023/05/13 09:20:36;;;;;;;24.10;8.35;;;;;;;;;;5007488;28;20034;-68
2023/05/13 09:23:05;;;;;;;19.60;7.78;;;;;;;;;;5006787;28;20034;-68
2023/05/13 09:25:33;;;;;;;;;;;;;;;;;;5008882;28;20878;-68
2023/05/13 09:28:02;;;;;;;24.03;8.30;;;;;;;;;;5020950;28;19925;-68
2023/05/13 09:30:28;;;;;;;26.95;8.65;;;;;;;;;;5011240;28;20311;-68
2023/05/13 09:33:06;;;;;;;28.40;8.07;;;;;;;;;;5010472;28;20041;-67
2023/05/13 09:35:32;;;;;;;22.00;8.32;;;;;;;;;;5006626;28;20068;-66
2023/05/13 09:37:57;;;;;;;22.27;8.27;;;;;;;;;;5006812;28;20077;-69
2023/05/13 09:40:22;;;;;;;21.63;8.50;;;;;;;;;;5010710;28;20052;-68
2023/05/13 09:42:48;;;;;;;27.63;9.25;;;;;;;;;;5010326;28;20160;-66
2023/05/13 09:45:14;;;;;;;24.40;9.35;;;;;;;;;;5008324;28;20550;-69
2023/05/13 09:47:39;;;;;;;31.73;9.13;;;;;;;;;;5006923;28;20050;-66
2023/05/13 09:50:05;;;;;;;25.88;8.35;;;;;;;;;;5019341;28;20558;-66
2023/05/13 09:52:31;;;;;;;18.55;8.18;;;;;;;;;;5013578;28;20061;-67
2023/05/13 09:54:59;;;;;;;28.85;9.40;;;;;;;;;;5039076;28;20500;-66
2023/05/13 09:57:28;;;;;;;28.70;8.75;;;;;;;;;;5007659;28;20121;-68
2023/05/13 10:00:06;;;;;;;26.15;8.93;;;;;;;;;;5006597;28;20677;-66
2023/05/13 10:02:31;;;;;;;27.13;8.93;;;;;;;;;;5007744;28;20033;-68
2023/05/13 10:04:57;;;;;;;22.80;8.00;;;;;;;;;;5040300;28;20441;-67
2023/05/13 10:07:26;;;;;;;27.15;8.13;;;;;;;;;;5009844;28;20375;-66
2023/05/13 10:09:55;;;;;;;25.58;8.77;;;;;;;;;;5037618;28;20545;-68
2023/05/13 10:12:23;;;;;;;20.48;8.18;;;;;;;;;;5005622;28;20553;-69
2023/05/13 10:14:52;;;;;;;24.80;8.88;;;;;;;;;;5008543;28;20758;-67
2023/05/13 10:17:22;;;;;;;29.10;8.52;;;;;;;;;;5007331;28;20048;-67
2023/05/13 10:19:51;;;;;;;25.08;8.32;;;;;;;;;;4992399;28;20037;-67
2023/05/13 10:22:22;;;;;;;22.15;8.63;;;;;;;;;;5006211;28;20052;-69
2023/05/13 10:24:48;;;;;;;22.33;7.57;;;;;;;;;;5021561;28;20143;-70
2023/05/13 10:27:13;;;;;;;19.48;7.68;;;;;;;;;;5009600;28;20038;-70
2023/05/13 10:29:39;;;;;;;21.92;7.32;;;;;;;;;;5005690;28;20046;-72
2023/05/13 10:32:05;;;;;;;26.67;7.82;;;;;;;;;;5009344;28;20041;-69
2023/05/13 10:34:32;;;;;;;29.58;7.35;;;;;;;;;;5033159;28;20041;-71
2023/05/13 10:37:25;;;;;;;28.02;8.15;;;;;;;;;;5029339;28;20064;-72
2023/05/13 10:40:09;;;;;;;23.73;7.83;;;;;;;;;;5002522;28;20678;-68
2023/05/13 10:42:42;;;;;;;21.30;7.80;;;;;;;;;;5036447;28;20529;-71
2023/05/13 10:45:08;;;;;;;20.67;7.50;;;;;;;;;;5010088;28;20033;-71
2023/05/13 10:47:34;;;;;;;23.45;7.82;;;;;;;;;;5008481;28;20049;-70
2023/05/13 10:50:04;;;;;;;19.70;7.18;;;;;;;;;;5008913;28;20025;-71
2023/05/13 10:52:45;;;;;;;26.70;7.35;;;;;;;;;;5007278;28;20040;-71
2023/05/13 10:55:14;;;;;;;23.70;7.00;;;;;;;;;;5004102;28;20037;-71
2023/05/13 10:57:59;;;;;;;22.10;7.10;;;;;;;;;;5039851;28;20268;-69
2023/05/13 11:00:29;;;;;;;27.27;7.45;;;;;;;;;;5016129;28;20034;-70
2023/05/13 11:02:54;;;;;;;21.83;7.57;;;;;;;;;;5037486;28;20045;-68
2023/05/13 11:05:22;;;;;;;18.52;6.45;;;;;;;;;;4997218;28;20589;-69
2023/05/13 11:07:56;;;;;;;18.13;7.30;;;;;;;;;;5010155;28;20087;-72
2023/05/13 11:10:21;;;;;;;;;;;;;;;;;;5004193;28;20148;-70
2023/05/13 11:13:05;;;;;;;19.08;6.90;;;;;;;;;;5039696;28;19917;-70
2023/05/13 11:15:49;;;;;;;25.70;7.38;;;;;;;;;;5004178;28;20374;-70
2023/05/13 11:18:14;;;;;;;18.77;6.70;;;;;;;;;;5034762;28;20048;-70
2023/05/13 11:20:46;;;;;;;22.52;7.55;;;;;;;;;;5006970;28;20052;-71
2023/05/13 11:23:21;;;;;;;21.80;7.80;;;;;;;;;;5005192;28;20033;-69
2023/05/13 11:26:08;;;;;;;24.35;7.43;;;;;;;;;;5004081;28;20690;-71
2023/05/13 11:28:54;;;;;;;19.90;7.60;;;;;;;;;;5005540;28;20605;-70
2023/05/13 11:31:20;;;;;;;26.48;7.28;;;;;;;;;;5034102;28;20099;-69
2023/05/13 11:34:04;;;;;;;21.85;7.15;;;;;;;;;;5004189;28;20061;-69
2023/05/13 11:36:30;;;;;;;20.17;6.60;;;;;;;;;;5004280;28;20102;-68
2023/05/13 11:39:03;;;;;;;22.52;7.15;;;;;;;;;;5003569;28;20040;-68
2023/05/13 11:41:30;;;;;;;27.38;7.68;;;;;;;;;;5002417;28;20048;-69
2023/05/13 11:43:58;;;;;;;30.42;7.30;;;;;;;;;;5003134;28;20029;-68
2023/05/13 11:46:25;;;;;;;25.75;7.00;;;;;;;;;;5004287;28;20274;-70
2023/05/13 11:48:56;;;;;;;24.05;7.40;;;;;;;;;;5004091;28;20049;-69
2023/05/13 11:51:24;;;;;;;22.60;6.90;;;;;;;;;;5009268;28;20045;-69
2023/05/13 11:53:49;;;;;;;27.25;7.65;;;;;;;;;;5000671;28;20772;-69
2023/05/13 11:56:15;;;;;;;25.75;7.45;;;;;;;;;;5016939;28;20024;-69
2023/05/13 11:58:43;;;;;;;18.00;6.88;;;;;;;;;;5033305;28;20037;-69
2023/05/13 12:01:15;;;;;;;25.42;7.13;;;;;;;;;;5039109;28;20465;-69
2023/05/13 12:03:40;;;;;;;27.65;7.15;;;;;;;;;;5005021;28;20044;-67
2023/05/13 12:06:05;;;;;;;26.73;7.10;;;;;;;;;;5006020;28;20033;-68
2023/05/13 12:08:31;;;;;;;19.40;7.40;;;;;;;;;;5004248;28;20262;-71
2023/05/13 12:11:00;;;;;;;23.33;7.53;;;;;;;;;;5009672;28;20034;-70
2023/05/13 12:13:28;;;;;;;17.77;6.85;;;;;;;;;;5005547;28;20047;-70
2023/05/13 12:15:54;;;;;;;24.02;7.07;;;;;;;;;;5005641;28;20036;-70
2023/05/13 12:18:22;;;;;;;26.48;7.78;;;;;;;;;;5007367;28;20128;-70
2023/05/13 12:20:47;;;;;;;23.48;7.05;;;;;;;;;;5005818;28;20040;-69
2023/05/13 12:23:12;;;;;;;17.55;6.15;;;;;;;;;;5006791;28;20041;-69
2023/05/13 12:25:42;;;;;;;25.33;7.03;;;;;;;;;;5004003;28;20491;-67
2023/05/13 12:28:18;;;;;;;23.73;7.03;;;;;;;;;;5006400;28;20041;-69
2023/05/13 12:30:43;;;;;;;31.45;8.02;;;;;;;;;;5008605;28;20831;-70
2023/05/13 12:33:13;;;;;;;23.73;6.45;;;;;;;;;;5009176;28;20037;-71
2023/05/13 12:35:43;;;;;;;20.30;6.47;;;;;;;;;;5006793;28;20090;-72
2023/05/13 12:38:16;;;;;;;25.80;6.97;;;;;;;;;;5013655;28;20045;-69
2023/05/13 12:40:41;;;;;;;22.48;6.90;;;;;;;;;;5011710;28;20514;-70
2023/05/13 12:43:07;;;;;;;21.40;7.40;;;;;;;;;;5039777;28;20044;-71
2023/05/13 12:45:32;;;;;;;27.55;7.18;;;;;;;;;;5006144;28;20042;-70
2023/05/13 12:47:58;;;;;;;24.13;7.13;;;;;;;;;;5013468;28;20284;-69
2023/05/13 12:50:26;;;;;;;24.67;7.28;;;;;;;;;;5007470;28;20430;-70
2023/05/13 12:52:52;;;;;;;26.13;7.57;;;;;;;;;;5041211;28;20103;-69
2023/05/13 12:55:17;;;;;;;17.08;6.32;;;;;;;;;;5013791;28;20163;-69
2023/05/13 12:57:54;;;;;;;19.50;6.13;;;;;;;;;;5039299;28;20055;-69
2023/05/13 13:00:20;;;;;;;25.17;7.32;;;;;;;;;;5006822;28;20033;-69
2023/05/13 13:02:46;;;;;;;23.15;7.60;;;;;;;;;;5005509;28;20052;-70
2023/05/13 13:05:11;;;;;;;19.13;7.32;;;;;;;;;;5008346;28;20065;-69
2023/05/13 13:07:41;;;;;;;21.08;6.65;;;;;;;;;;5035175;28;20210;-70
2023/05/13 13:10:06;;;;;;;19.45;7.07;;;;;;;;;;5006742;28;20029;-71
2023/05/13 13:12:32;;;;;;;21.45;7.32;;;;;;;;;;5040658;28;20057;-68
2023/05/13 13:14:57;;;;;;;17.05;7.43;;;;;;;;;;5007780;28;20771;-67
2023/05/13 13:17:24;;;;;;;21.80;8.07;;;;;;;;;;5010031;28;20045;-68
2023/05/13 13:19:50;;;;;;;22.50;7.32;;;;;;;;;;5007529;28;20041;-68
2023/05/13 13:22:15;;;;;;;26.25;8.20;;;;;;;;;;5007711;28;20103;-70
2023/05/13 13:24:43;;;;;;;27.48;7.80;;;;;;;;;;5008143;28;20033;-67
2023/05/13 13:27:11;;;;;;;25.10;7.82;;;;;;;;;;5006921;28;20098;-67
2023/05/13 13:29:37;;;;;;;28.48;7.93;;;;;;;;;;5004338;28;20034;-70
2023/05/13 13:32:02;;;;;;;20.52;7.50;;;;;;;;;;5002746;28;20075;-70
2023/05/13 13:34:27;;;;;;;20.70;8.43;;;;;;;;;;5003063;28;20040;-68
2023/05/13 13:36:53;;;;;;;24.90;8.02;;;;;;;;;;5005437;28;20113;-66
2023/05/13 13:39:18;;;;;;;18.75;7.72;;;;;;;;;;5003872;28;20152;-71
2023/05/13 13:41:46;;;;;;;22.55;8.15;;;;;;;;;;5008751;28;21631;-72
2023/05/13 13:44:11;;;;;;;23.60;9.10;;;;;;;;;;5007177;28;20038;-72
2023/05/13 13:46:38;;;;;;;27.73;7.85;;;;;;;;;;5008738;28;20120;-70
2023/05/13 13:49:04;;;;;;;20.75;7.72;;;;;;;;;;5007310;28;20099;-70
2023/05/13 13:51:29;;;;;;;23.30;8.20;;;;;;;;;;5005634;28;20044;-70
2023/05/13 13:53:55;;;;;;;23.15;8.27;;;;;;;;;;5004223;28;20129;-71
2023/05/13 13:56:21;;;;;;;24.67;8.70;;;;;;;;;;5004796;28;22551;-72
2023/05/13 13:58:46;;;;;;;25.73;8.52;;;;;;;;;;5003136;28;20792;-72
2023/05/13 14:01:11;;;;;;;22.83;8.30;;;;;;;;;;5004017;28;20034;-73
2023/05/13 14:03:39;;;;;;;21.70;8.90;;;;;;;;;;5005705;28;20116;-73
2023/05/13 14:06:04;;;;;;;26.00;8.88;;;;;;;;;;5002347;28;20037;-73
2023/05/13 14:08:30;;;;;;;22.60;8.00;;;;;;;;;;5003178;28;20135;-72
2023/05/13 14:10:56;;;;;;;24.75;8.50;;;;;;;;;;5004866;28;21099;-71
2023/05/13 14:13:22;;;;;;;25.00;8.25;;;;;;;;;;5005418;28;20057;-71
2023/05/13 14:15:47;;;;;;;20.13;8.10;;;;;;;;;;5005287;28;20156;-72
2023/05/13 14:18:12;;;;;;;26.83;8.93;;;;;;;;;;5001712;28;20037;-71
2023/05/13 14:20:38;;;;;;;26.13;8.40;;;;;;;;;;5037673;28;20029;-71
2023/05/13 14:23:03;;;;;;;26.10;8.82;;;;;;;;;;5004463;28;20062;-69